Strona główna
METAR-TAF:

METAR-TAF

Lotnisko :

Port lotniczy Seattle-Tacoma

Seattle / Tacoma, Waszyngton, Stany Zjednoczone

Szerokość geograficzna: 47-26-41N, Długość geograficzna: 122-18-49W, wysokość: 130 m

Aktualna obserwacja pogody

Raport powstał 58 minut temu, godzina 12:53 UTC
Wiatr 4 kt od wschodnio-południowy wschód
Temperatura 10°C
Wilgotność 76%
Ciśnienie 1024 hPa
Widzialność: 16.1 km
Mało chmury na wysokości 5500 ft

METAR: KSEA 241253Z 12004KT 10SM FEW055 10/06 A3023 RMK AO2 SLP244 T01000061 $

czas: 06:51 (13:51 UTC)

Prognoza

Raport powstał 2 godziny i 22 minut temu, godzina 11:29 UTC
Prognoza ważna od 24 godzina 12 UTC do 25 godzina 18 UTC
Wiatr 5 kt z kierunków zmiennych
Widzialność: 10 km
Rozproszone chmury na wysokości 6000 ft
Od 24 godzina 1800 UTC
Wiatr 8 kt od północ
Widzialność: 10 km
Mało chmury na wysokości 6000 ft
Od 25 godzina 0600 UTC
Wiatr 9 kt od północno-północny wschód
Widzialność: 10 km
bezchmurnie

TAF: KSEA 241129Z 2412/2518 VRB05KT P6SM SCT060 FM241800 35008KT P6SM FEW060 FM250600 03009KT P6SM SKC

Obserwacja i prognoza pogody dla ponad 4000 lotnisk (raport METAR i TAF).

Dostępne stacje oznaczono żółtymi i czerwonymi punktami na mapie.

Najedź kursorem aby zobaczyć nazwę stacji.

Kliknij aby zobaczyć obserwacje i prognozy pogody.

Aby zmienić mapę: kliknij na zielony przycisk z czarnym krzyżykiem, aby powiększyć; na zielony przycisk z myślnikiem, aby pomniejszyć; na zielone strzałki, aby przejść do map sąsiednich.


METAR-TAF: